sensor_id;sensor_type;location;lat;lon;timestamp;pressure;altitude;pressure_sealevel;temperature;humidity
7026;BME280;3554;42.132;24.786;2023-08-07T00:00:19;98477.16;;;23.27;100.00
7026;BME280;3554;42.132;24.786;2023-08-07T00:02:46;98478.66;;;23.22;100.00
7026;BME280;3554;42.132;24.786;2023-08-07T00:05:13;98482.91;;;22.99;100.00
7026;BME280;3554;42.132;24.786;2023-08-07T00:07:41;98475.47;;;23.10;100.00
7026;BME280;3554;42.132;24.786;2023-08-07T00:10:08;98467.03;;;22.89;100.00
7026;BME280;3554;42.132;24.786;2023-08-07T00:12:35;98473.38;;;22.88;100.00
7026;BME280;3554;42.132;24.786;2023-08-07T00:15:02;98479.16;;;22.76;100.00
7026;BME280;3554;42.132;24.786;2023-08-07T00:17:29;98485.09;;;22.95;100.00
7026;BME280;3554;42.132;24.786;2023-08-07T00:19:56;98445.47;;;22.75;100.00
7026;BME280;3554;42.132;24.786;2023-08-07T00:22:23;98475.94;;;22.98;100.00
7026;BME280;3554;42.132;24.786;2023-08-07T00:24:51;98482.06;;;22.90;100.00
7026;BME280;3554;42.132;24.786;2023-08-07T00:27:18;98483.56;;;22.93;100.00
7026;BME280;3554;42.132;24.786;2023-08-07T00:29:45;98461.19;;;22.86;100.00
7026;BME280;3554;42.132;24.786;2023-08-07T00:32:12;98475.53;;;22.85;100.00
7026;BME280;3554;42.132;24.786;2023-08-07T00:34:39;98476.38;;;22.85;100.00
7026;BME280;3554;42.132;24.786;2023-08-07T00:37:05;98481.84;;;22.84;100.00
7026;BME280;3554;42.132;24.786;2023-08-07T00:39:32;98480.88;;;22.85;100.00
7026;BME280;3554;42.132;24.786;2023-08-07T00:42:00;98483.50;;;22.77;100.00
7026;BME280;3554;42.132;24.786;2023-08-07T00:44:27;98482.66;;;22.76;100.00
7026;BME280;3554;42.132;24.786;2023-08-07T00:46:54;98452.59;;;22.66;100.00
7026;BME280;3554;42.132;24.786;2023-08-07T00:49:21;98468.47;;;22.68;100.00
7026;BME280;3554;42.132;24.786;2023-08-07T00:51:48;98476.75;;;22.57;100.00
7026;BME280;3554;42.132;24.786;2023-08-07T00:54:18;98479.44;;;22.65;100.00
7026;BME280;3554;42.132;24.786;2023-08-07T00:56:46;98485.56;;;22.57;100.00
7026;BME280;3554;42.132;24.786;2023-08-07T00:59:14;98497.31;;;22.47;100.00
7026;BME280;3554;42.132;24.786;2023-08-07T01:01:41;98488.31;;;22.48;100.00
7026;BME280;3554;42.132;24.786;2023-08-07T01:04:08;98481.78;;;22.42;100.00
7026;BME280;3554;42.132;24.786;2023-08-07T01:06:35;98491.78;;;22.40;100.00
7026;BME280;3554;42.132;24.786;2023-08-07T01:09:02;98457.75;;;22.08;100.00
7026;BME280;3554;42.132;24.786;2023-08-07T01:11:33;98476.44;;;22.16;100.00
7026;BME280;3554;42.132;24.786;2023-08-07T01:14:21;98514.56;;;22.34;100.00
7026;BME280;3554;42.132;24.786;2023-08-07T01:16:55;98520.69;;;22.27;100.00
7026;BME280;3554;42.132;24.786;2023-08-07T01:19:25;98516.97;;;22.20;100.00
7026;BME280;3554;42.132;24.786;2023-08-07T01:22:05;98512.31;;;22.22;100.00
7026;BME280;3554;42.132;24.786;2023-08-07T01:24:32;98499.19;;;22.03;100.00
7026;BME280;3554;42.132;24.786;2023-08-07T01:27:10;98516.44;;;22.16;100.00
7026;BME280;3554;42.132;24.786;2023-08-07T01:29:44;98514.56;;;22.09;100.00
7026;BME280;3554;42.132;24.786;2023-08-07T01:32:19;98506.50;;;22.01;100.00
7026;BME280;3554;42.132;24.786;2023-08-07T01:34:49;98515.78;;;21.97;100.00
7026;BME280;3554;42.132;24.786;2023-08-07T01:37:18;98521.13;;;21.97;100.00
7026;BME280;3554;42.132;24.786;2023-08-07T01:39:47;98526.19;;;21.82;100.00
7026;BME280;3554;42.132;24.786;2023-08-07T01:42:15;98534.91;;;21.75;100.00
7026;BME280;3554;42.132;24.786;2023-08-07T01:44:42;98545.97;;;21.80;100.00
7026;BME280;3554;42.132;24.786;2023-08-07T01:47:08;98542.03;;;21.74;100.00
7026;BME280;3554;42.132;24.786;2023-08-07T01:49:35;98536.19;;;21.71;100.00
7026;BME280;3554;42.132;24.786;2023-08-07T01:52:05;98515.31;;;21.49;100.00
7026;BME280;3554;42.132;24.786;2023-08-07T01:54:33;98539.00;;;21.69;100.00
7026;BME280;3554;42.132;24.786;2023-08-07T01:57:00;98552.91;;;21.63;100.00
7026;BME280;3554;42.132;24.786;2023-08-07T01:59:26;98558.72;;;21.59;100.00
7026;BME280;3554;42.132;24.786;2023-08-07T02:01:53;98548.06;;;21.59;100.00
7026;BME280;3554;42.132;24.786;2023-08-07T02:04:20;98560.47;;;21.68;100.00
7026;BME280;3554;42.132;24.786;2023-08-07T02:06:47;98574.06;;;21.65;100.00
7026;BME280;3554;42.132;24.786;2023-08-07T02:09:13;98562.44;;;21.66;100.00
7026;BME280;3554;42.132;24.786;2023-08-07T02:11:42;98560.00;;;21.55;100.00
7026;BME280;3554;42.132;24.786;2023-08-07T02:14:09;98558.78;;;21.49;100.00
7026;BME280;3554;42.132;24.786;2023-08-07T02:16:36;98567.84;;;21.56;100.00
7026;BME280;3554;42.132;24.786;2023-08-07T02:19:03;98563.56;;;21.46;100.00
7026;BME280;3554;42.132;24.786;2023-08-07T02:21:30;98566.56;;;21.33;100.00
7026;BME280;3554;42.132;24.786;2023-08-07T02:23:56;98553.88;;;21.27;100.00
7026;BME280;3554;42.132;24.786;2023-08-07T02:26:23;98561.41;;;21.32;100.00
7026;BME280;3554;42.132;24.786;2023-08-07T02:28:51;98544.94;;;21.18;100.00
7026;BME280;3554;42.132;24.786;2023-08-07T02:31:18;98563.69;;;21.26;100.00
7026;BME280;3554;42.132;24.786;2023-08-07T02:33:45;98562.69;;;21.27;100.00
7026;BME280;3554;42.132;24.786;2023-08-07T02:36:11;98577.00;;;21.26;100.00
7026;BME280;3554;42.132;24.786;2023-08-07T02:38:38;98566.84;;;21.12;100.00
7026;BME280;3554;42.132;24.786;2023-08-07T02:41:05;98570.59;;;21.19;100.00
7026;BME280;3554;42.132;24.786;2023-08-07T02:43:32;98579.44;;;21.10;100.00
7026;BME280;3554;42.132;24.786;2023-08-07T02:46:01;98583.25;;;20.98;100.00
7026;BME280;3554;42.132;24.786;2023-08-07T02:48:27;98574.16;;;21.01;100.00
7026;BME280;3554;42.132;24.786;2023-08-07T02:50:54;98570.81;;;20.99;100.00
7026;BME280;3554;42.132;24.786;2023-08-07T02:53:21;98575.69;;;20.94;100.00
7026;BME280;3554;42.132;24.786;2023-08-07T02:55:48;98586.66;;;20.91;100.00
7026;BME280;3554;42.132;24.786;2023-08-07T02:58:15;98570.13;;;20.87;100.00
7026;BME280;3554;42.132;24.786;2023-08-07T03:00:41;98589.72;;;20.86;100.00
7026;BME280;3554;42.132;24.786;2023-08-07T03:03:10;98587.53;;;20.82;100.00
7026;BME280;3554;42.132;24.786;2023-08-07T03:05:37;98586.94;;;20.88;100.00
7026;BME280;3554;42.132;24.786;2023-08-07T03:08:04;98595.25;;;20.75;100.00
7026;BME280;3554;42.132;24.786;2023-08-07T03:10:30;98599.19;;;20.71;100.00
7026;BME280;3554;42.132;24.786;2023-08-07T03:12:57;98600.44;;;20.67;100.00
7026;BME280;3554;42.132;24.786;2023-08-07T03:15:24;98598.06;;;20.64;100.00
7026;BME280;3554;42.132;24.786;2023-08-07T03:17:51;98596.38;;;20.63;100.00
7026;BME280;3554;42.132;24.786;2023-08-07T03:20:19;98609.41;;;20.66;100.00
7026;BME280;3554;42.132;24.786;2023-08-07T03:22:46;98574.75;;;20.49;100.00
7026;BME280;3554;42.132;24.786;2023-08-07T03:25:12;98611.22;;;20.66;100.00
7026;BME280;3554;42.132;24.786;2023-08-07T03:27:39;98612.03;;;20.76;100.00
7026;BME280;3554;42.132;24.786;2023-08-07T03:30:07;98621.25;;;20.81;100.00
7026;BME280;3554;42.132;24.786;2023-08-07T03:32:34;98624.34;;;20.77;100.00
7026;BME280;3554;42.132;24.786;2023-08-07T03:35:00;98623.91;;;20.81;100.00
7026;BME280;3554;42.132;24.786;2023-08-07T03:37:28;98631.19;;;20.89;100.00
7026;BME280;3554;42.132;24.786;2023-08-07T03:39:55;98626.72;;;20.89;100.00
7026;BME280;3554;42.132;24.786;2023-08-07T03:42:22;98633.44;;;20.84;100.00
7026;BME280;3554;42.132;24.786;2023-08-07T03:44:49;98625.06;;;20.79;100.00
7026;BME280;3554;42.132;24.786;2023-08-07T03:47:15;98635.66;;;20.88;100.00
7026;BME280;3554;42.132;24.786;2023-08-07T03:49:42;98618.34;;;21.21;100.00
7026;BME280;3554;42.132;24.786;2023-08-07T03:52:09;98620.16;;;21.75;100.00
7026;BME280;3554;42.132;24.786;2023-08-07T03:54:37;98630.09;;;22.17;100.00
7026;BME280;3554;42.132;24.786;2023-08-07T03:57:04;98634.31;;;22.55;100.00
7026;BME280;3554;42.132;24.786;2023-08-07T03:59:31;98648.56;;;22.72;100.00
7026;BME280;3554;42.132;24.786;2023-08-07T04:01:58;98648.63;;;23.05;100.00
7026;BME280;3554;42.132;24.786;2023-08-07T04:04:24;98651.56;;;23.20;100.00
7026;BME280;3554;42.132;24.786;2023-08-07T04:06:51;98656.66;;;23.31;100.00
7026;BME280;3554;42.132;24.786;2023-08-07T04:09:18;98652.59;;;23.61;100.00
7026;BME280;3554;42.132;24.786;2023-08-07T04:11:46;98652.94;;;23.66;100.00
7026;BME280;3554;42.132;24.786;2023-08-07T04:14:13;98649.19;;;23.76;100.00
7026;BME280;3554;42.132;24.786;2023-08-07T04:16:39;98655.50;;;23.67;100.00
7026;BME280;3554;42.132;24.786;2023-08-07T04:19:06;98652.69;;;23.85;100.00
7026;BME280;3554;42.132;24.786;2023-08-07T04:21:33;98640.31;;;23.84;100.00
7026;BME280;3554;42.132;24.786;2023-08-07T04:24:00;98668.50;;;24.20;100.00
7026;BME280;3554;42.132;24.786;2023-08-07T04:26:33;98675.56;;;24.53;100.00
7026;BME280;3554;42.132;24.786;2023-08-07T04:29:01;98668.22;;;24.47;100.00
7026;BME280;3554;42.132;24.786;2023-08-07T04:31:28;98675.25;;;24.56;100.00
7026;BME280;3554;42.132;24.786;2023-08-07T04:33:56;98682.28;;;24.65;100.00
7026;BME280;3554;42.132;24.786;2023-08-07T04:36:23;98682.94;;;24.83;100.00
7026;BME280;3554;42.132;24.786;2023-08-07T04:38:50;98668.34;;;25.10;100.00
7026;BME280;3554;42.132;24.786;2023-08-07T04:41:17;98674.22;;;25.13;100.00
7026;BME280;3554;42.132;24.786;2023-08-07T04:43:44;98668.03;;;25.13;100.00
7026;BME280;3554;42.132;24.786;2023-08-07T04:46:14;98676.72;;;25.15;100.00
7026;BME280;3554;42.132;24.786;2023-08-07T04:48:41;98697.84;;;25.02;100.00
7026;BME280;3554;42.132;24.786;2023-08-07T04:51:08;98684.63;;;24.84;100.00
7026;BME280;3554;42.132;24.786;2023-08-07T04:53:35;98684.28;;;24.63;100.00
7026;BME280;3554;42.132;24.786;2023-08-07T04:56:02;98679.06;;;24.37;100.00
7026;BME280;3554;42.132;24.786;2023-08-07T04:58:29;98693.97;;;24.64;100.00
7026;BME280;3554;42.132;24.786;2023-08-07T05:00:56;98696.66;;;24.56;100.00
7026;BME280;3554;42.132;24.786;2023-08-07T05:03:24;98694.00;;;24.80;100.00
7026;BME280;3554;42.132;24.786;2023-08-07T05:05:58;98690.97;;;24.91;100.00
7026;BME280;3554;42.132;24.786;2023-08-07T05:08:24;98703.84;;;24.96;100.00
7026;BME280;3554;42.132;24.786;2023-08-07T05:10:51;98705.03;;;24.93;100.00
7026;BME280;3554;42.132;24.786;2023-08-07T05:13:18;98705.53;;;25.05;100.00
7026;BME280;3554;42.132;24.786;2023-08-07T05:15:47;98710.88;;;25.05;100.00
7026;BME280;3554;42.132;24.786;2023-08-07T05:18:14;98702.00;;;25.20;100.00
7026;BME280;3554;42.132;24.786;2023-08-07T05:20:42;98705.41;;;24.90;100.00
7026;BME280;3554;42.132;24.786;2023-08-07T05:23:09;98713.06;;;24.93;100.00
7026;BME280;3554;42.132;24.786;2023-08-07T05:25:37;98698.66;;;25.18;100.00
7026;BME280;3554;42.132;24.786;2023-08-07T05:28:04;98710.22;;;24.79;100.00
7026;BME280;3554;42.132;24.786;2023-08-07T05:30:31;98712.38;;;25.07;100.00
7026;BME280;3554;42.132;24.786;2023-08-07T05:32:58;98708.38;;;25.03;100.00
7026;BME280;3554;42.132;24.786;2023-08-07T05:35:25;98716.03;;;25.30;100.00
7026;BME280;3554;42.132;24.786;2023-08-07T05:37:53;98717.38;;;25.26;100.00
7026;BME280;3554;42.132;24.786;2023-08-07T05:40:19;98712.69;;;25.45;100.00
7026;BME280;3554;42.132;24.786;2023-08-07T05:42:46;98718.22;;;25.27;100.00
7026;BME280;3554;42.132;24.786;2023-08-07T05:45:13;98728.97;;;25.11;100.00
7026;BME280;3554;42.132;24.786;2023-08-07T05:47:40;98725.75;;;25.15;100.00
7026;BME280;3554;42.132;24.786;2023-08-07T05:50:08;98730.78;;;25.26;100.00
7026;BME280;3554;42.132;24.786;2023-08-07T05:52:35;98727.41;;;25.40;100.00
7026;BME280;3554;42.132;24.786;2023-08-07T05:55:04;98726.22;;;25.59;100.00
7026;BME280;3554;42.132;24.786;2023-08-07T05:57:31;98725.19;;;25.60;100.00
7026;BME280;3554;42.132;24.786;2023-08-07T05:59:58;98712.50;;;25.54;100.00
7026;BME280;3554;42.132;24.786;2023-08-07T06:02:25;98733.78;;;25.31;100.00
7026;BME280;3554;42.132;24.786;2023-08-07T06:04:52;98721.41;;;25.22;100.00
7026;BME280;3554;42.132;24.786;2023-08-07T06:07:19;98715.50;;;25.35;100.00
7026;BME280;3554;42.132;24.786;2023-08-07T06:09:46;98712.19;;;25.33;100.00
7026;BME280;3554;42.132;24.786;2023-08-07T06:12:14;98713.16;;;25.56;100.00
7026;BME280;3554;42.132;24.786;2023-08-07T06:14:42;98714.16;;;25.55;100.00
7026;BME280;3554;42.132;24.786;2023-08-07T06:17:09;98716.44;;;25.74;100.00
7026;BME280;3554;42.132;24.786;2023-08-07T06:19:36;98708.13;;;25.61;100.00
7026;BME280;3554;42.132;24.786;2023-08-07T06:22:04;98704.03;;;25.73;100.00
7026;BME280;3554;42.132;24.786;2023-08-07T06:24:31;98715.56;;;25.82;100.00
7026;BME280;3554;42.132;24.786;2023-08-07T06:26:58;98708.00;;;26.24;100.00
7026;BME280;3554;42.132;24.786;2023-08-07T06:29:27;98705.22;;;26.63;100.00
7026;BME280;3554;42.132;24.786;2023-08-07T06:31:54;98710.69;;;26.77;100.00
7026;BME280;3554;42.132;24.786;2023-08-07T06:34:21;98677.53;;;26.39;100.00
7026;BME280;3554;42.132;24.786;2023-08-07T06:36:49;98714.84;;;26.57;100.00
7026;BME280;3554;42.132;24.786;2023-08-07T06:39:16;98716.31;;;26.37;100.00
7026;BME280;3554;42.132;24.786;2023-08-07T06:41:43;98725.63;;;26.49;100.00
7026;BME280;3554;42.132;24.786;2023-08-07T06:44:10;98720.88;;;26.82;100.00
7026;BME280;3554;42.132;24.786;2023-08-07T06:46:38;98729.03;;;26.66;100.00
7026;BME280;3554;42.132;24.786;2023-08-07T06:49:05;98724.75;;;26.79;100.00
7026;BME280;3554;42.132;24.786;2023-08-07T06:51:31;98717.44;;;26.73;100.00
7026;BME280;3554;42.132;24.786;2023-08-07T06:53:58;98732.81;;;27.02;100.00
7026;BME280;3554;42.132;24.786;2023-08-07T06:56:25;98730.78;;;27.18;100.00
7026;BME280;3554;42.132;24.786;2023-08-07T06:58:52;98736.63;;;27.22;100.00
7026;BME280;3554;42.132;24.786;2023-08-07T07:01:18;98753.06;;;27.27;100.00
7026;BME280;3554;42.132;24.786;2023-08-07T07:03:47;98726.13;;;27.35;100.00
7026;BME280;3554;42.132;24.786;2023-08-07T07:06:17;98749.03;;;27.45;100.00
7026;BME280;3554;42.132;24.786;2023-08-07T07:08:46;98727.00;;;26.90;100.00
7026;BME280;3554;42.132;24.786;2023-08-07T07:11:12;98730.31;;;27.15;100.00
7026;BME280;3554;42.132;24.786;2023-08-07T07:13:41;98736.34;;;27.17;100.00
7026;BME280;3554;42.132;24.786;2023-08-07T07:16:08;98732.97;;;26.78;100.00
7026;BME280;3554;42.132;24.786;2023-08-07T07:18:37;98735.94;;;26.68;100.00
7026;BME280;3554;42.132;24.786;2023-08-07T07:21:05;98738.34;;;26.78;100.00
7026;BME280;3554;42.132;24.786;2023-08-07T07:23:32;98730.69;;;26.67;100.00
7026;BME280;3554;42.132;24.786;2023-08-07T07:25:58;98727.06;;;27.05;100.00
7026;BME280;3554;42.132;24.786;2023-08-07T07:28:25;98728.56;;;27.07;100.00
7026;BME280;3554;42.132;24.786;2023-08-07T07:30:53;98729.66;;;27.50;100.00
7026;BME280;3554;42.132;24.786;2023-08-07T07:33:19;98717.13;;;27.42;100.00
7026;BME280;3554;42.132;24.786;2023-08-07T07:35:46;98735.56;;;27.31;100.00
7026;BME280;3554;42.132;24.786;2023-08-07T07:38:14;98736.88;;;27.35;100.00
7026;BME280;3554;42.132;24.786;2023-08-07T07:40:42;98723.44;;;27.35;100.00
7026;BME280;3554;42.132;24.786;2023-08-07T07:43:08;98741.44;;;27.64;100.00
7026;BME280;3554;42.132;24.786;2023-08-07T07:45:35;98739.19;;;27.53;100.00
7026;BME280;3554;42.132;24.786;2023-08-07T07:48:02;98737.44;;;27.89;100.00
7026;BME280;3554;42.132;24.786;2023-08-07T07:50:29;98745.53;;;28.03;100.00
7026;BME280;3554;42.132;24.786;2023-08-07T07:52:56;98727.59;;;28.25;100.00
7026;BME280;3554;42.132;24.786;2023-08-07T07:55:24;98730.91;;;28.27;100.00
7026;BME280;3554;42.132;24.786;2023-08-07T07:57:51;98732.31;;;28.23;100.00
7026;BME280;3554;42.132;24.786;2023-08-07T08:00:18;98730.41;;;28.38;100.00
7026;BME280;3554;42.132;24.786;2023-08-07T08:02:45;98723.69;;;28.13;100.00
7026;BME280;3554;42.132;24.786;2023-08-07T08:05:12;98731.53;;;28.29;100.00
7026;BME280;3554;42.132;24.786;2023-08-07T08:07:41;98730.31;;;28.10;98.77
7026;BME280;3554;42.132;24.786;2023-08-07T08:10:09;98739.50;;;28.16;93.22
7026;BME280;3554;42.132;24.786;2023-08-07T08:12:37;98737.94;;;28.42;93.30
7026;BME280;3554;42.132;24.786;2023-08-07T08:15:04;98733.00;;;28.46;92.54
7026;BME280;3554;42.132;24.786;2023-08-07T08:17:31;98733.66;;;28.48;94.63
7026;BME280;3554;42.132;24.786;2023-08-07T08:19:58;98730.56;;;28.51;91.05
7026;BME280;3554;42.132;24.786;2023-08-07T08:22:25;98725.03;;;28.38;86.49
7026;BME280;3554;42.132;24.786;2023-08-07T08:24:52;98741.63;;;28.56;87.73
7026;BME280;3554;42.132;24.786;2023-08-07T08:27:18;98729.75;;;28.36;81.10
7026;BME280;3554;42.132;24.786;2023-08-07T08:29:47;98738.69;;;28.36;81.51
7026;BME280;3554;42.132;24.786;2023-08-07T08:32:14;98729.97;;;28.34;82.83
7026;BME280;3554;42.132;24.786;2023-08-07T08:34:41;98726.38;;;28.48;82.34
7026;BME280;3554;42.132;24.786;2023-08-07T08:37:08;98731.19;;;28.68;81.10
7026;BME280;3554;42.132;24.786;2023-08-07T08:39:36;98714.13;;;28.61;80.79
7026;BME280;3554;42.132;24.786;2023-08-07T08:42:04;98717.38;;;28.56;82.82
7026;BME280;3554;42.132;24.786;2023-08-07T08:44:31;98706.66;;;28.63;84.04
7026;BME280;3554;42.132;24.786;2023-08-07T08:47:03;98707.00;;;29.02;83.96
7026;BME280;3554;42.132;24.786;2023-08-07T08:49:37;98705.16;;;29.02;80.21
7026;BME280;3554;42.132;24.786;2023-08-07T08:52:09;98700.41;;;29.04;79.15
7026;BME280;3554;42.132;24.786;2023-08-07T08:54:37;98696.19;;;28.95;79.25
7026;BME280;3554;42.132;24.786;2023-08-07T08:57:04;98698.28;;;29.00;78.30
7026;BME280;3554;42.132;24.786;2023-08-07T08:59:33;98689.84;;;29.03;77.35
7026;BME280;3554;42.132;24.786;2023-08-07T09:02:01;98696.91;;;28.83;77.99
7026;BME280;3554;42.132;24.786;2023-08-07T09:04:28;98699.97;;;29.01;78.72
7026;BME280;3554;42.132;24.786;2023-08-07T09:06:55;98697.91;;;29.03;78.54
7026;BME280;3554;42.132;24.786;2023-08-07T09:09:22;98689.19;;;29.28;80.24
7026;BME280;3554;42.132;24.786;2023-08-07T09:11:50;98688.19;;;29.64;72.62
7026;BME280;3554;42.132;24.786;2023-08-07T09:14:22;98682.59;;;29.65;72.89
7026;BME280;3554;42.132;24.786;2023-08-07T09:16:51;98695.16;;;29.51;69.49
7026;BME280;3554;42.132;24.786;2023-08-07T09:19:19;98689.41;;;29.61;67.86
7026;BME280;3554;42.132;24.786;2023-08-07T09:21:46;98683.94;;;29.76;68.54
7026;BME280;3554;42.132;24.786;2023-08-07T09:24:13;98685.34;;;29.72;68.81
7026;BME280;3554;42.132;24.786;2023-08-07T09:26:42;98663.91;;;29.64;69.86
7026;BME280;3554;42.132;24.786;2023-08-07T09:29:10;98645.16;;;29.90;72.40
7026;BME280;3554;42.132;24.786;2023-08-07T09:31:37;98680.06;;;29.98;66.99
7026;BME280;3554;42.132;24.786;2023-08-07T09:34:04;98675.75;;;30.10;69.96
7026;BME280;3554;42.132;24.786;2023-08-07T09:36:33;98668.28;;;30.12;65.30
7026;BME280;3554;42.132;24.786;2023-08-07T09:39:01;98678.25;;;30.11;67.40
7026;BME280;3554;42.132;24.786;2023-08-07T09:41:29;98682.19;;;30.09;64.82
7026;BME280;3554;42.132;24.786;2023-08-07T09:43:56;98675.78;;;30.23;61.44
7026;BME280;3554;42.132;24.786;2023-08-07T09:46:23;98682.94;;;30.50;60.52
7026;BME280;3554;42.132;24.786;2023-08-07T09:48:51;98675.22;;;30.40;60.69
7026;BME280;3554;42.132;24.786;2023-08-07T09:51:18;98672.94;;;30.37;59.46
7026;BME280;3554;42.132;24.786;2023-08-07T09:53:49;98648.56;;;30.18;61.66
7026;BME280;3554;42.132;24.786;2023-08-07T09:56:16;98664.63;;;30.32;61.48
7026;BME280;3554;42.132;24.786;2023-08-07T09:58:46;98678.69;;;30.21;60.04
7026;BME280;3554;42.132;24.786;2023-08-07T10:01:15;98672.44;;;30.21;58.73
7026;BME280;3554;42.132;24.786;2023-08-07T10:03:43;98669.22;;;30.38;58.91
7026;BME280;3554;42.132;24.786;2023-08-07T10:06:10;98676.91;;;30.41;58.61
7026;BME280;3554;42.132;24.786;2023-08-07T10:08:39;98671.72;;;30.53;57.54
7026;BME280;3554;42.132;24.786;2023-08-07T10:11:09;98665.06;;;30.62;55.03
7026;BME280;3554;42.132;24.786;2023-08-07T10:13:36;98663.22;;;30.56;52.76
7026;BME280;3554;42.132;24.786;2023-08-07T10:16:03;98654.28;;;30.62;53.58
7026;BME280;3554;42.132;24.786;2023-08-07T10:18:30;98641.59;;;30.69;55.19
7026;BME280;3554;42.132;24.786;2023-08-07T10:20:57;98647.84;;;30.63;53.06
7026;BME280;3554;42.132;24.786;2023-08-07T10:23:27;98648.47;;;30.98;56.94
7026;BME280;3554;42.132;24.786;2023-08-07T10:25:55;98653.44;;;31.27;49.83
7026;BME280;3554;42.132;24.786;2023-08-07T10:28:24;98649.69;;;31.28;47.82
7026;BME280;3554;42.132;24.786;2023-08-07T10:30:52;98648.25;;;31.25;49.53
7026;BME280;3554;42.132;24.786;2023-08-07T10:33:19;98638.25;;;31.19;49.49
7026;BME280;3554;42.132;24.786;2023-08-07T10:35:47;98652.22;;;31.03;49.05
7026;BME280;3554;42.132;24.786;2023-08-07T10:38:14;98633.03;;;30.26;49.00
7026;BME280;3554;42.132;24.786;2023-08-07T10:41:01;98630.38;;;30.52;56.15
7026;BME280;3554;42.132;24.786;2023-08-07T10:43:30;98629.56;;;30.91;53.48
7026;BME280;3554;42.132;24.786;2023-08-07T10:46:03;98616.88;;;30.59;51.99
7026;BME280;3554;42.132;24.786;2023-08-07T10:48:37;98631.03;;;30.87;53.07
7026;BME280;3554;42.132;24.786;2023-08-07T10:51:04;98633.91;;;30.79;48.48
7026;BME280;3554;42.132;24.786;2023-08-07T10:53:32;98621.66;;;29.84;50.85
7026;BME280;3554;42.132;24.786;2023-08-07T10:56:02;98623.91;;;29.74;60.43
7026;BME280;3554;42.132;24.786;2023-08-07T10:58:31;98630.97;;;30.41;57.62
7026;BME280;3554;42.132;24.786;2023-08-07T11:01:18;98626.19;;;30.37;52.10
7026;BME280;3554;42.132;24.786;2023-08-07T11:03:48;98637.91;;;29.97;51.68
7026;BME280;3554;42.132;24.786;2023-08-07T11:06:16;98627.59;;;30.13;53.92
7026;BME280;3554;42.132;24.786;2023-08-07T11:08:43;98627.03;;;30.31;51.09
7026;BME280;3554;42.132;24.786;2023-08-07T11:11:10;98624.53;;;30.29;51.44
7026;BME280;3554;42.132;24.786;2023-08-07T11:13:38;98612.50;;;30.45;52.88
7026;BME280;3554;42.132;24.786;2023-08-07T11:16:05;98616.84;;;30.46;49.23
7026;BME280;3554;42.132;24.786;2023-08-07T11:18:32;98606.78;;;30.07;53.26
7026;BME280;3554;42.132;24.786;2023-08-07T11:21:01;98605.94;;;30.00;53.62
7026;BME280;3554;42.132;24.786;2023-08-07T11:23:28;98606.03;;;30.39;52.40
7026;BME280;3554;42.132;24.786;2023-08-07T11:25:55;98600.00;;;30.31;52.35
7026;BME280;3554;42.132;24.786;2023-08-07T11:28:22;98597.13;;;30.52;52.42
7026;BME280;3554;42.132;24.786;2023-08-07T11:30:52;98579.44;;;30.49;51.63
7026;BME280;3554;42.132;24.786;2023-08-07T11:33:21;98592.53;;;30.66;51.96
7026;BME280;3554;42.132;24.786;2023-08-07T11:35:50;98581.53;;;30.80;52.44
7026;BME280;3554;42.132;24.786;2023-08-07T11:38:29;98550.34;;;30.84;53.03
7026;BME280;3554;42.132;24.786;2023-08-07T11:40:58;98581.56;;;30.87;50.48
7026;BME280;3554;42.132;24.786;2023-08-07T11:43:27;98475.75;;;30.37;50.55
7026;BME280;3554;42.132;24.786;2023-08-07T11:45:56;98583.38;;;30.93;50.42
7026;BME280;3554;42.132;24.786;2023-08-07T11:48:23;98582.97;;;30.89;52.51
7026;BME280;3554;42.132;24.786;2023-08-07T11:50:51;98585.25;;;30.92;50.38
7026;BME280;3554;42.132;24.786;2023-08-07T11:53:19;98576.06;;;31.06;50.53
7026;BME280;3554;42.132;24.786;2023-08-07T11:55:47;98572.34;;;31.07;49.22
7026;BME280;3554;42.132;24.786;2023-08-07T11:58:15;98570.84;;;31.24;49.96
7026;BME280;3554;42.132;24.786;2023-08-07T12:00:43;98570.22;;;31.22;51.53
7026;BME280;3554;42.132;24.786;2023-08-07T12:03:25;98574.78;;;31.35;50.46
7026;BME280;3554;42.132;24.786;2023-08-07T12:05:53;98562.53;;;31.19;51.60
7026;BME280;3554;42.132;24.786;2023-08-07T12:08:21;98564.00;;;31.15;51.21
7026;BME280;3554;42.132;24.786;2023-08-07T12:10:53;98556.28;;;31.25;53.47
7026;BME280;3554;42.132;24.786;2023-08-07T12:13:23;98555.22;;;31.39;53.79
7026;BME280;3554;42.132;24.786;2023-08-07T12:15:51;98542.66;;;31.51;55.27
7026;BME280;3554;42.132;24.786;2023-08-07T12:18:20;98540.44;;;31.80;56.28
7026;BME280;3554;42.132;24.786;2023-08-07T12:20:50;98481.53;;;31.37;58.12
7026;BME280;3554;42.132;24.786;2023-08-07T12:23:19;98550.66;;;31.78;57.18
7026;BME280;3554;42.132;24.786;2023-08-07T12:25:47;98557.09;;;31.90;54.95
7026;BME280;3554;42.132;24.786;2023-08-07T12:28:15;98535.69;;;31.75;55.85
7026;BME280;3554;42.132;24.786;2023-08-07T12:30:44;98548.38;;;31.75;58.25
7026;BME280;3554;42.132;24.786;2023-08-07T12:33:12;98541.78;;;32.02;57.37
7026;BME280;3554;42.132;24.786;2023-08-07T12:35:39;98518.28;;;31.96;55.80
7026;BME280;3554;42.132;24.786;2023-08-07T12:38:08;98543.22;;;32.04;53.18
7026;BME280;3554;42.132;24.786;2023-08-07T12:40:35;98550.25;;;32.12;53.96
7026;BME280;3554;42.132;24.786;2023-08-07T12:43:02;98546.63;;;31.87;53.61
7026;BME280;3554;42.132;24.786;2023-08-07T12:45:29;98546.38;;;31.57;54.55
7026;BME280;3554;42.132;24.786;2023-08-07T12:47:56;98545.31;;;31.65;54.77
7026;BME280;3554;42.132;24.786;2023-08-07T12:50:23;98554.25;;;31.65;55.18
7026;BME280;3554;42.132;24.786;2023-08-07T12:52:49;98520.66;;;31.41;56.34
7026;BME280;3554;42.132;24.786;2023-08-07T12:55:18;98543.03;;;31.62;54.50
7026;BME280;3554;42.132;24.786;2023-08-07T12:57:45;98502.00;;;31.20;55.15
7026;BME280;3554;42.132;24.786;2023-08-07T13:00:13;98538.53;;;31.42;55.45
7026;BME280;3554;42.132;24.786;2023-08-07T13:02:40;98525.47;;;31.26;58.55
7026;BME280;3554;42.132;24.786;2023-08-07T13:05:08;98530.88;;;31.39;57.14
7026;BME280;3554;42.132;24.786;2023-08-07T13:07:35;98540.53;;;31.67;55.84